Terminal Aerodrome Forecast
Issued by NWS

Home | Current Version | Previous Version | Text Only | Print | Product List | Glossary On
Versions: 1 2 3 4 5 6 7 8 9 10 11 12 13 14 15 16 17 18 19
000
FTUS43 KILX 060538
TAFDEC
TAF
KDEC 060538Z 0606/0706 10006KT 5SM BR BKN200
     FM061100 VRB04KT 2SM BR OVC009
     FM061600 32007KT 4SM BR BKN008
     FM061900 30011KT P6SM SCT015
     FM062300 28008KT P6SM SKC=

USA.gov is the U.S. government's official web portal to all federal, state and local government web resources and services.